sensor_id;sensor_type;location;lat;lon;timestamp;P1;durP1;ratioP1;P2;durP2;ratioP2
27039;SDS011;14589;51.578;7.306;2023-11-19T00:02:23;1.02;;;0.57;;
27039;SDS011;14589;51.578;7.306;2023-11-19T00:04:53;1.48;;;0.45;;
27039;SDS011;14589;51.578;7.306;2023-11-19T00:07:24;0.68;;;0.15;;
27039;SDS011;14589;51.578;7.306;2023-11-19T00:09:57;1.15;;;0.63;;
27039;SDS011;14589;51.578;7.306;2023-11-19T00:12:29;1.88;;;0.57;;
27039;SDS011;14589;51.578;7.306;2023-11-19T00:15:00;2.95;;;0.73;;
27039;SDS011;14589;51.578;7.306;2023-11-19T00:17:30;1.55;;;1.45;;
27039;SDS011;14589;51.578;7.306;2023-11-19T00:20:01;0.85;;;0.68;;
27039;SDS011;14589;51.578;7.306;2023-11-19T00:22:31;0.85;;;0.30;;
27039;SDS011;14589;51.578;7.306;2023-11-19T00:25:01;1.25;;;0.82;;
27039;SDS011;14589;51.578;7.306;2023-11-19T00:27:32;1.10;;;0.35;;
27039;SDS011;14589;51.578;7.306;2023-11-19T00:30:03;2.45;;;0.43;;
27039;SDS011;14589;51.578;7.306;2023-11-19T00:32:35;2.45;;;1.27;;
27039;SDS011;14589;51.578;7.306;2023-11-19T00:35:06;1.67;;;0.55;;
27039;SDS011;14589;51.578;7.306;2023-11-19T00:37:37;2.10;;;1.08;;
27039;SDS011;14589;51.578;7.306;2023-11-19T00:40:08;2.03;;;0.98;;
27039;SDS011;14589;51.578;7.306;2023-11-19T00:42:40;3.97;;;1.23;;
27039;SDS011;14589;51.578;7.306;2023-11-19T00:45:10;3.58;;;1.10;;
27039;SDS011;14589;51.578;7.306;2023-11-19T00:47:42;2.63;;;0.85;;
27039;SDS011;14589;51.578;7.306;2023-11-19T00:50:13;3.10;;;1.50;;
27039;SDS011;14589;51.578;7.306;2023-11-19T00:52:43;5.18;;;1.65;;
27039;SDS011;14589;51.578;7.306;2023-11-19T00:55:14;3.35;;;2.55;;
27039;SDS011;14589;51.578;7.306;2023-11-19T00:57:44;5.07;;;1.73;;
27039;SDS011;14589;51.578;7.306;2023-11-19T01:00:15;3.60;;;2.08;;
27039;SDS011;14589;51.578;7.306;2023-11-19T01:02:48;3.08;;;1.98;;
27039;SDS011;14589;51.578;7.306;2023-11-19T01:05:20;4.90;;;2.85;;
27039;SDS011;14589;51.578;7.306;2023-11-19T01:10:24;4.47;;;2.72;;
27039;SDS011;14589;51.578;7.306;2023-11-19T01:12:56;7.05;;;2.50;;
27039;SDS011;14589;51.578;7.306;2023-11-19T01:15:27;6.05;;;2.78;;
27039;SDS011;14589;51.578;7.306;2023-11-19T01:17:57;3.78;;;2.05;;
27039;SDS011;14589;51.578;7.306;2023-11-19T01:20:28;4.47;;;2.78;;
27039;SDS011;14589;51.578;7.306;2023-11-19T01:22:59;3.67;;;1.67;;
27039;SDS011;14589;51.578;7.306;2023-11-19T01:25:29;3.55;;;2.28;;
27039;SDS011;14589;51.578;7.306;2023-11-19T01:28:00;6.15;;;3.20;;
27039;SDS011;14589;51.578;7.306;2023-11-19T01:33:02;3.40;;;1.87;;
27039;SDS011;14589;51.578;7.306;2023-11-19T01:35:33;6.22;;;1.80;;
27039;SDS011;14589;51.578;7.306;2023-11-19T01:38:03;3.72;;;1.45;;
27039;SDS011;14589;51.578;7.306;2023-11-19T01:40:34;3.45;;;1.95;;
27039;SDS011;14589;51.578;7.306;2023-11-19T01:43:06;3.83;;;2.40;;
27039;SDS011;14589;51.578;7.306;2023-11-19T01:45:37;3.28;;;2.30;;
27039;SDS011;14589;51.578;7.306;2023-11-19T01:48:08;3.22;;;1.50;;
27039;SDS011;14589;51.578;7.306;2023-11-19T01:50:41;2.95;;;1.58;;
27039;SDS011;14589;51.578;7.306;2023-11-19T01:53:12;2.42;;;1.23;;
27039;SDS011;14589;51.578;7.306;2023-11-19T01:55:42;3.03;;;1.25;;
27039;SDS011;14589;51.578;7.306;2023-11-19T01:58:13;2.70;;;1.23;;
27039;SDS011;14589;51.578;7.306;2023-11-19T02:00:44;2.72;;;0.95;;
27039;SDS011;14589;51.578;7.306;2023-11-19T02:03:15;2.75;;;1.55;;
27039;SDS011;14589;51.578;7.306;2023-11-19T02:05:47;2.45;;;1.35;;
27039;SDS011;14589;51.578;7.306;2023-11-19T02:08:19;2.83;;;0.73;;
27039;SDS011;14589;51.578;7.306;2023-11-19T02:10:50;1.80;;;0.88;;
27039;SDS011;14589;51.578;7.306;2023-11-19T02:13:22;2.75;;;1.30;;
27039;SDS011;14589;51.578;7.306;2023-11-19T02:15:56;2.03;;;0.70;;
27039;SDS011;14589;51.578;7.306;2023-11-19T02:18:27;3.10;;;2.00;;
27039;SDS011;14589;51.578;7.306;2023-11-19T02:20:59;2.15;;;0.73;;
27039;SDS011;14589;51.578;7.306;2023-11-19T02:23:30;4.47;;;0.70;;
27039;SDS011;14589;51.578;7.306;2023-11-19T02:28:46;5.85;;;1.52;;
27039;SDS011;14589;51.578;7.306;2023-11-19T02:31:16;2.85;;;0.65;;
27039;SDS011;14589;51.578;7.306;2023-11-19T02:33:47;2.58;;;0.90;;
27039;SDS011;14589;51.578;7.306;2023-11-19T02:36:20;3.17;;;1.40;;
27039;SDS011;14589;51.578;7.306;2023-11-19T02:38:51;2.65;;;0.98;;
27039;SDS011;14589;51.578;7.306;2023-11-19T02:41:22;6.68;;;1.15;;
27039;SDS011;14589;51.578;7.306;2023-11-19T02:43:52;4.90;;;0.68;;
27039;SDS011;14589;51.578;7.306;2023-11-19T02:46:23;4.47;;;1.52;;
27039;SDS011;14589;51.578;7.306;2023-11-19T02:48:54;5.85;;;1.27;;
27039;SDS011;14589;51.578;7.306;2023-11-19T02:51:24;3.55;;;0.73;;
27039;SDS011;14589;51.578;7.306;2023-11-19T02:53:55;4.43;;;1.65;;
27039;SDS011;14589;51.578;7.306;2023-11-19T02:56:25;4.13;;;2.17;;
27039;SDS011;14589;51.578;7.306;2023-11-19T02:58:56;4.80;;;1.27;;
27039;SDS011;14589;51.578;7.306;2023-11-19T03:01:27;3.72;;;1.33;;
27039;SDS011;14589;51.578;7.306;2023-11-19T03:04:01;6.43;;;1.20;;
27039;SDS011;14589;51.578;7.306;2023-11-19T03:06:32;3.63;;;0.50;;
27039;SDS011;14589;51.578;7.306;2023-11-19T03:09:02;8.82;;;1.23;;
27039;SDS011;14589;51.578;7.306;2023-11-19T03:11:40;7.20;;;1.10;;
27039;SDS011;14589;51.578;7.306;2023-11-19T03:14:10;5.20;;;1.35;;
27039;SDS011;14589;51.578;7.306;2023-11-19T03:16:40;6.88;;;1.52;;
27039;SDS011;14589;51.578;7.306;2023-11-19T03:19:11;4.38;;;1.33;;
27039;SDS011;14589;51.578;7.306;2023-11-19T03:21:41;9.00;;;1.10;;
27039;SDS011;14589;51.578;7.306;2023-11-19T03:24:15;5.22;;;1.08;;
27039;SDS011;14589;51.578;7.306;2023-11-19T03:26:49;7.68;;;1.40;;
27039;SDS011;14589;51.578;7.306;2023-11-19T03:29:22;5.65;;;1.75;;
27039;SDS011;14589;51.578;7.306;2023-11-19T03:31:53;7.70;;;1.58;;
27039;SDS011;14589;51.578;7.306;2023-11-19T03:34:23;5.45;;;1.05;;
27039;SDS011;14589;51.578;7.306;2023-11-19T03:36:54;6.15;;;1.05;;
27039;SDS011;14589;51.578;7.306;2023-11-19T03:39:24;5.00;;;0.93;;
27039;SDS011;14589;51.578;7.306;2023-11-19T03:41:55;7.60;;;1.17;;
27039;SDS011;14589;51.578;7.306;2023-11-19T03:44:26;13.75;;;2.05;;
27039;SDS011;14589;51.578;7.306;2023-11-19T03:46:57;9.50;;;1.45;;
27039;SDS011;14589;51.578;7.306;2023-11-19T03:49:27;12.60;;;2.00;;
27039;SDS011;14589;51.578;7.306;2023-11-19T03:51:58;4.80;;;2.05;;
27039;SDS011;14589;51.578;7.306;2023-11-19T03:54:28;6.25;;;1.15;;
27039;SDS011;14589;51.578;7.306;2023-11-19T03:56:59;7.85;;;1.38;;
27039;SDS011;14589;51.578;7.306;2023-11-19T03:59:30;5.40;;;1.88;;
27039;SDS011;14589;51.578;7.306;2023-11-19T04:02:00;9.68;;;1.60;;
27039;SDS011;14589;51.578;7.306;2023-11-19T04:04:32;8.20;;;2.10;;
27039;SDS011;14589;51.578;7.306;2023-11-19T04:07:03;7.80;;;2.10;;
27039;SDS011;14589;51.578;7.306;2023-11-19T04:09:34;8.80;;;2.40;;
27039;SDS011;14589;51.578;7.306;2023-11-19T04:12:04;11.55;;;2.38;;
27039;SDS011;14589;51.578;7.306;2023-11-19T04:14:36;9.48;;;2.05;;
27039;SDS011;14589;51.578;7.306;2023-11-19T04:17:06;10.85;;;1.60;;
27039;SDS011;14589;51.578;7.306;2023-11-19T04:19:37;5.15;;;1.25;;
27039;SDS011;14589;51.578;7.306;2023-11-19T04:22:09;7.97;;;3.30;;
27039;SDS011;14589;51.578;7.306;2023-11-19T04:24:39;13.35;;;1.85;;
27039;SDS011;14589;51.578;7.306;2023-11-19T04:27:10;6.60;;;1.08;;
27039;SDS011;14589;51.578;7.306;2023-11-19T04:29:42;15.52;;;1.85;;
27039;SDS011;14589;51.578;7.306;2023-11-19T04:32:12;9.50;;;1.52;;
27039;SDS011;14589;51.578;7.306;2023-11-19T04:34:43;13.48;;;2.33;;
27039;SDS011;14589;51.578;7.306;2023-11-19T04:37:13;9.40;;;1.50;;
27039;SDS011;14589;51.578;7.306;2023-11-19T04:39:44;5.88;;;1.15;;
27039;SDS011;14589;51.578;7.306;2023-11-19T04:42:16;11.98;;;2.10;;
27039;SDS011;14589;51.578;7.306;2023-11-19T04:44:47;11.98;;;1.33;;
27039;SDS011;14589;51.578;7.306;2023-11-19T04:47:17;13.20;;;1.17;;
27039;SDS011;14589;51.578;7.306;2023-11-19T04:49:48;8.00;;;1.80;;
27039;SDS011;14589;51.578;7.306;2023-11-19T04:52:18;15.90;;;1.38;;
27039;SDS011;14589;51.578;7.306;2023-11-19T04:54:48;12.18;;;1.27;;
27039;SDS011;14589;51.578;7.306;2023-11-19T04:57:19;9.95;;;1.10;;
27039;SDS011;14589;51.578;7.306;2023-11-19T04:59:49;9.90;;;0.98;;
27039;SDS011;14589;51.578;7.306;2023-11-19T05:02:19;15.68;;;0.98;;
27039;SDS011;14589;51.578;7.306;2023-11-19T05:04:50;16.33;;;1.63;;
27039;SDS011;14589;51.578;7.306;2023-11-19T05:07:20;9.57;;;1.73;;
27039;SDS011;14589;51.578;7.306;2023-11-19T05:09:51;9.30;;;1.05;;
27039;SDS011;14589;51.578;7.306;2023-11-19T05:12:21;9.40;;;0.77;;
27039;SDS011;14589;51.578;7.306;2023-11-19T05:14:52;9.48;;;1.08;;
27039;SDS011;14589;51.578;7.306;2023-11-19T05:17:23;12.95;;;2.47;;
27039;SDS011;14589;51.578;7.306;2023-11-19T05:19:53;9.68;;;1.23;;
27039;SDS011;14589;51.578;7.306;2023-11-19T05:22:24;16.17;;;1.17;;
27039;SDS011;14589;51.578;7.306;2023-11-19T05:24:56;9.63;;;1.50;;
27039;SDS011;14589;51.578;7.306;2023-11-19T05:27:26;17.38;;;1.92;;
27039;SDS011;14589;51.578;7.306;2023-11-19T05:29:57;13.45;;;3.30;;
27039;SDS011;14589;51.578;7.306;2023-11-19T05:32:27;11.02;;;1.50;;
27039;SDS011;14589;51.578;7.306;2023-11-19T05:34:57;7.95;;;1.35;;
27039;SDS011;14589;51.578;7.306;2023-11-19T05:37:28;18.63;;;2.13;;
27039;SDS011;14589;51.578;7.306;2023-11-19T05:39:58;7.97;;;1.63;;
27039;SDS011;14589;51.578;7.306;2023-11-19T05:42:30;19.90;;;2.08;;
27039;SDS011;14589;51.578;7.306;2023-11-19T05:45:00;15.48;;;2.70;;
27039;SDS011;14589;51.578;7.306;2023-11-19T05:47:31;24.70;;;1.75;;
27039;SDS011;14589;51.578;7.306;2023-11-19T05:50:01;16.83;;;2.08;;
27039;SDS011;14589;51.578;7.306;2023-11-19T05:52:31;10.98;;;1.25;;
27039;SDS011;14589;51.578;7.306;2023-11-19T05:55:03;16.05;;;2.10;;
27039;SDS011;14589;51.578;7.306;2023-11-19T05:57:36;20.40;;;2.08;;
27039;SDS011;14589;51.578;7.306;2023-11-19T06:00:07;15.45;;;3.03;;
27039;SDS011;14589;51.578;7.306;2023-11-19T06:02:41;17.30;;;2.60;;
27039;SDS011;14589;51.578;7.306;2023-11-19T06:05:12;16.25;;;2.00;;
27039;SDS011;14589;51.578;7.306;2023-11-19T06:07:42;15.98;;;1.75;;
27039;SDS011;14589;51.578;7.306;2023-11-19T06:10:12;15.52;;;2.13;;
27039;SDS011;14589;51.578;7.306;2023-11-19T06:12:46;16.02;;;2.65;;
27039;SDS011;14589;51.578;7.306;2023-11-19T06:15:17;21.20;;;1.45;;
27039;SDS011;14589;51.578;7.306;2023-11-19T06:17:48;20.83;;;3.97;;
27039;SDS011;14589;51.578;7.306;2023-11-19T06:20:18;10.85;;;1.75;;
27039;SDS011;14589;51.578;7.306;2023-11-19T06:22:50;15.80;;;1.55;;
27039;SDS011;14589;51.578;7.306;2023-11-19T06:25:20;17.02;;;2.17;;
27039;SDS011;14589;51.578;7.306;2023-11-19T06:27:51;15.10;;;2.13;;
27039;SDS011;14589;51.578;7.306;2023-11-19T06:30:21;19.13;;;2.28;;
27039;SDS011;14589;51.578;7.306;2023-11-19T06:32:52;20.38;;;1.92;;
27039;SDS011;14589;51.578;7.306;2023-11-19T06:35:22;7.60;;;1.25;;
27039;SDS011;14589;51.578;7.306;2023-11-19T06:37:53;17.42;;;2.58;;
27039;SDS011;14589;51.578;7.306;2023-11-19T06:40:23;17.75;;;2.55;;
27039;SDS011;14589;51.578;7.306;2023-11-19T06:42:53;17.98;;;1.42;;
27039;SDS011;14589;51.578;7.306;2023-11-19T06:45:24;13.80;;;1.30;;
27039;SDS011;14589;51.578;7.306;2023-11-19T06:47:54;14.13;;;1.48;;
27039;SDS011;14589;51.578;7.306;2023-11-19T06:50:25;12.90;;;1.90;;
27039;SDS011;14589;51.578;7.306;2023-11-19T06:52:55;12.90;;;1.40;;
27039;SDS011;14589;51.578;7.306;2023-11-19T06:55:26;17.52;;;1.48;;
27039;SDS011;14589;51.578;7.306;2023-11-19T06:57:56;9.27;;;1.38;;
27039;SDS011;14589;51.578;7.306;2023-11-19T07:00:27;6.50;;;1.00;;
27039;SDS011;14589;51.578;7.306;2023-11-19T07:02:58;17.55;;;3.17;;
27039;SDS011;14589;51.578;7.306;2023-11-19T07:05:28;16.50;;;1.38;;
27039;SDS011;14589;51.578;7.306;2023-11-19T07:08:00;12.52;;;1.55;;
27039;SDS011;14589;51.578;7.306;2023-11-19T07:10:31;16.77;;;2.05;;
27039;SDS011;14589;51.578;7.306;2023-11-19T07:13:01;10.82;;;2.58;;
27039;SDS011;14589;51.578;7.306;2023-11-19T07:15:36;19.88;;;2.35;;
27039;SDS011;14589;51.578;7.306;2023-11-19T07:18:07;15.18;;;2.05;;
27039;SDS011;14589;51.578;7.306;2023-11-19T07:20:38;19.25;;;2.30;;
27039;SDS011;14589;51.578;7.306;2023-11-19T07:23:10;11.45;;;1.85;;
27039;SDS011;14589;51.578;7.306;2023-11-19T07:25:40;14.38;;;2.50;;
27039;SDS011;14589;51.578;7.306;2023-11-19T07:28:11;24.35;;;1.92;;
27039;SDS011;14589;51.578;7.306;2023-11-19T07:30:41;12.35;;;2.58;;
27039;SDS011;14589;51.578;7.306;2023-11-19T07:33:12;13.25;;;1.50;;
27039;SDS011;14589;51.578;7.306;2023-11-19T07:35:43;15.55;;;2.42;;
27039;SDS011;14589;51.578;7.306;2023-11-19T07:38:14;18.27;;;1.33;;
27039;SDS011;14589;51.578;7.306;2023-11-19T07:40:44;14.85;;;2.20;;
27039;SDS011;14589;51.578;7.306;2023-11-19T07:43:15;17.75;;;1.80;;
27039;SDS011;14589;51.578;7.306;2023-11-19T07:45:46;20.85;;;2.22;;
27039;SDS011;14589;51.578;7.306;2023-11-19T07:48:16;11.48;;;1.67;;
27039;SDS011;14589;51.578;7.306;2023-11-19T07:50:52;14.27;;;2.10;;
27039;SDS011;14589;51.578;7.306;2023-11-19T07:53:26;15.75;;;2.28;;
27039;SDS011;14589;51.578;7.306;2023-11-19T07:55:58;7.78;;;1.63;;
27039;SDS011;14589;51.578;7.306;2023-11-19T07:58:32;19.90;;;1.70;;
27039;SDS011;14589;51.578;7.306;2023-11-19T08:01:02;16.90;;;2.42;;
27039;SDS011;14589;51.578;7.306;2023-11-19T08:03:33;16.23;;;2.08;;
27039;SDS011;14589;51.578;7.306;2023-11-19T08:06:06;11.60;;;1.23;;
27039;SDS011;14589;51.578;7.306;2023-11-19T08:08:37;16.30;;;1.17;;
27039;SDS011;14589;51.578;7.306;2023-11-19T08:11:08;15.95;;;1.70;;
27039;SDS011;14589;51.578;7.306;2023-11-19T08:13:38;16.27;;;2.17;;
27039;SDS011;14589;51.578;7.306;2023-11-19T08:16:08;13.50;;;1.30;;
27039;SDS011;14589;51.578;7.306;2023-11-19T08:18:41;13.77;;;1.30;;
27039;SDS011;14589;51.578;7.306;2023-11-19T08:21:13;15.43;;;2.08;;
27039;SDS011;14589;51.578;7.306;2023-11-19T08:23:45;19.27;;;1.48;;
27039;SDS011;14589;51.578;7.306;2023-11-19T08:26:15;16.17;;;1.42;;
27039;SDS011;14589;51.578;7.306;2023-11-19T08:28:46;16.15;;;1.67;;
27039;SDS011;14589;51.578;7.306;2023-11-19T08:31:16;19.27;;;2.05;;
27039;SDS011;14589;51.578;7.306;2023-11-19T08:33:47;11.23;;;1.80;;
27039;SDS011;14589;51.578;7.306;2023-11-19T08:36:17;10.27;;;2.20;;
27039;SDS011;14589;51.578;7.306;2023-11-19T08:38:48;12.57;;;2.03;;
27039;SDS011;14589;51.578;7.306;2023-11-19T08:41:18;16.85;;;1.73;;
27039;SDS011;14589;51.578;7.306;2023-11-19T08:43:49;26.33;;;2.60;;
27039;SDS011;14589;51.578;7.306;2023-11-19T08:46:20;14.48;;;1.27;;
27039;SDS011;14589;51.578;7.306;2023-11-19T08:48:50;21.02;;;2.33;;
27039;SDS011;14589;51.578;7.306;2023-11-19T08:51:21;16.70;;;1.88;;
27039;SDS011;14589;51.578;7.306;2023-11-19T08:53:51;12.75;;;1.58;;
27039;SDS011;14589;51.578;7.306;2023-11-19T08:56:21;16.35;;;1.45;;
27039;SDS011;14589;51.578;7.306;2023-11-19T08:58:52;11.80;;;1.70;;
27039;SDS011;14589;51.578;7.306;2023-11-19T09:01:22;13.68;;;1.85;;
27039;SDS011;14589;51.578;7.306;2023-11-19T09:03:53;22.55;;;2.30;;
27039;SDS011;14589;51.578;7.306;2023-11-19T09:06:23;13.93;;;1.90;;
27039;SDS011;14589;51.578;7.306;2023-11-19T09:08:53;18.17;;;3.17;;
27039;SDS011;14589;51.578;7.306;2023-11-19T09:11:28;21.38;;;2.65;;
27039;SDS011;14589;51.578;7.306;2023-11-19T09:13:59;17.85;;;2.22;;
27039;SDS011;14589;51.578;7.306;2023-11-19T09:16:29;14.02;;;0.90;;
27039;SDS011;14589;51.578;7.306;2023-11-19T09:19:00;20.23;;;1.80;;
27039;SDS011;14589;51.578;7.306;2023-11-19T09:21:32;15.38;;;2.17;;
27039;SDS011;14589;51.578;7.306;2023-11-19T09:24:04;12.48;;;1.55;;
27039;SDS011;14589;51.578;7.306;2023-11-19T09:26:35;19.20;;;2.28;;
27039;SDS011;14589;51.578;7.306;2023-11-19T09:29:06;19.60;;;3.17;;
27039;SDS011;14589;51.578;7.306;2023-11-19T09:31:37;14.45;;;2.67;;
27039;SDS011;14589;51.578;7.306;2023-11-19T09:34:08;12.57;;;1.58;;
27039;SDS011;14589;51.578;7.306;2023-11-19T09:36:39;12.18;;;1.80;;
27039;SDS011;14589;51.578;7.306;2023-11-19T09:39:13;17.67;;;2.47;;
27039;SDS011;14589;51.578;7.306;2023-11-19T09:41:48;20.08;;;1.75;;
27039;SDS011;14589;51.578;7.306;2023-11-19T09:44:19;14.23;;;1.73;;
27039;SDS011;14589;51.578;7.306;2023-11-19T09:46:49;12.88;;;2.28;;
27039;SDS011;14589;51.578;7.306;2023-11-19T09:49:21;18.23;;;2.30;;
27039;SDS011;14589;51.578;7.306;2023-11-19T09:51:53;11.93;;;1.05;;
27039;SDS011;14589;51.578;7.306;2023-11-19T09:54:24;22.48;;;2.22;;
27039;SDS011;14589;51.578;7.306;2023-11-19T09:56:55;14.13;;;2.45;;
27039;SDS011;14589;51.578;7.306;2023-11-19T09:59:33;14.80;;;1.77;;
27039;SDS011;14589;51.578;7.306;2023-11-19T10:02:04;19.52;;;2.22;;
27039;SDS011;14589;51.578;7.306;2023-11-19T10:04:34;22.50;;;1.92;;
27039;SDS011;14589;51.578;7.306;2023-11-19T10:07:06;12.82;;;0.77;;
27039;SDS011;14589;51.578;7.306;2023-11-19T10:09:36;16.33;;;3.00;;
27039;SDS011;14589;51.578;7.306;2023-11-19T10:12:07;21.45;;;2.78;;
27039;SDS011;14589;51.578;7.306;2023-11-19T10:14:37;14.93;;;2.33;;
27039;SDS011;14589;51.578;7.306;2023-11-19T10:17:09;19.52;;;3.97;;
27039;SDS011;14589;51.578;7.306;2023-11-19T10:19:39;16.25;;;1.92;;
27039;SDS011;14589;51.578;7.306;2023-11-19T10:22:11;18.48;;;2.95;;
27039;SDS011;14589;51.578;7.306;2023-11-19T10:24:42;15.02;;;2.35;;
27039;SDS011;14589;51.578;7.306;2023-11-19T10:27:12;10.40;;;1.48;;
27039;SDS011;14589;51.578;7.306;2023-11-19T10:29:45;15.90;;;1.90;;
27039;SDS011;14589;51.578;7.306;2023-11-19T10:32:16;18.52;;;1.95;;
27039;SDS011;14589;51.578;7.306;2023-11-19T10:34:47;15.20;;;1.48;;
27039;SDS011;14589;51.578;7.306;2023-11-19T10:37:27;16.55;;;1.48;;
27039;SDS011;14589;51.578;7.306;2023-11-19T10:40:07;14.90;;;1.45;;
27039;SDS011;14589;51.578;7.306;2023-11-19T10:42:41;13.43;;;1.95;;
27039;SDS011;14589;51.578;7.306;2023-11-19T10:45:24;14.48;;;1.90;;
27039;SDS011;14589;51.578;7.306;2023-11-19T10:47:54;14.88;;;1.63;;
27039;SDS011;14589;51.578;7.306;2023-11-19T10:50:28;10.32;;;2.25;;
27039;SDS011;14589;51.578;7.306;2023-11-19T10:52:59;19.85;;;2.10;;
27039;SDS011;14589;51.578;7.306;2023-11-19T10:55:30;13.32;;;2.08;;
27039;SDS011;14589;51.578;7.306;2023-11-19T10:58:15;16.35;;;1.80;;
27039;SDS011;14589;51.578;7.306;2023-11-19T11:00:54;11.07;;;1.70;;
27039;SDS011;14589;51.578;7.306;2023-11-19T11:03:29;15.52;;;1.98;;
27039;SDS011;14589;51.578;7.306;2023-11-19T11:06:09;12.55;;;0.93;;
27039;SDS011;14589;51.578;7.306;2023-11-19T11:08:41;26.83;;;1.60;;
27039;SDS011;14589;51.578;7.306;2023-11-19T11:11:13;14.00;;;1.13;;
27039;SDS011;14589;51.578;7.306;2023-11-19T11:13:51;12.15;;;1.98;;
27039;SDS011;14589;51.578;7.306;2023-11-19T11:16:24;15.95;;;2.58;;
27039;SDS011;14589;51.578;7.306;2023-11-19T11:18:56;19.05;;;2.08;;
27039;SDS011;14589;51.578;7.306;2023-11-19T11:21:27;16.02;;;1.50;;
27039;SDS011;14589;51.578;7.306;2023-11-19T11:26:48;11.13;;;1.00;;
27039;SDS011;14589;51.578;7.306;2023-11-19T11:29:35;12.43;;;1.70;;
27039;SDS011;14589;51.578;7.306;2023-11-19T11:37:50;18.38;;;2.17;;
27039;SDS011;14589;51.578;7.306;2023-11-19T11:40:29;10.38;;;2.08;;
27039;SDS011;14589;51.578;7.306;2023-11-19T11:45:39;12.93;;;1.42;;
27039;SDS011;14589;51.578;7.306;2023-11-19T11:48:15;13.20;;;1.92;;
27039;SDS011;14589;51.578;7.306;2023-11-19T11:50:53;15.93;;;2.45;;
27039;SDS011;14589;51.578;7.306;2023-11-19T11:53:29;17.83;;;2.63;;
27039;SDS011;14589;51.578;7.306;2023-11-19T11:56:00;20.38;;;2.40;;
27039;SDS011;14589;51.578;7.306;2023-11-19T11:58:32;10.23;;;0.73;;
27039;SDS011;14589;51.578;7.306;2023-11-19T12:01:06;9.30;;;0.95;;
27039;SDS011;14589;51.578;7.306;2023-11-19T12:03:37;18.05;;;1.90;;
27039;SDS011;14589;51.578;7.306;2023-11-19T12:06:07;11.32;;;1.98;;
27039;SDS011;14589;51.578;7.306;2023-11-19T12:08:38;17.92;;;1.55;;
27039;SDS011;14589;51.578;7.306;2023-11-19T12:11:09;9.77;;;1.30;;
27039;SDS011;14589;51.578;7.306;2023-11-19T12:13:47;15.75;;;2.33;;
27039;SDS011;14589;51.578;7.306;2023-11-19T12:16:24;13.65;;;3.50;;
27039;SDS011;14589;51.578;7.306;2023-11-19T12:18:54;9.45;;;2.88;;
27039;SDS011;14589;51.578;7.306;2023-11-19T12:21:29;14.65;;;2.30;;
27039;SDS011;14589;51.578;7.306;2023-11-19T12:24:00;9.43;;;2.13;;
27039;SDS011;14589;51.578;7.306;2023-11-19T12:26:37;13.43;;;1.65;;
27039;SDS011;14589;51.578;7.306;2023-11-19T12:29:08;12.98;;;2.42;;
27039;SDS011;14589;51.578;7.306;2023-11-19T12:31:38;16.45;;;2.88;;
27039;SDS011;14589;51.578;7.306;2023-11-19T12:34:14;17.50;;;3.05;;
27039;SDS011;14589;51.578;7.306;2023-11-19T12:36:44;15.48;;;2.20;;
27039;SDS011;14589;51.578;7.306;2023-11-19T12:39:15;11.15;;;1.63;;
27039;SDS011;14589;51.578;7.306;2023-11-19T12:41:49;11.50;;;1.63;;
27039;SDS011;14589;51.578;7.306;2023-11-19T12:44:21;10.20;;;1.75;;
27039;SDS011;14589;51.578;7.306;2023-11-19T12:47:04;10.85;;;1.65;;
27039;SDS011;14589;51.578;7.306;2023-11-19T12:49:36;11.68;;;2.00;;
27039;SDS011;14589;51.578;7.306;2023-11-19T12:52:13;11.23;;;1.90;;
27039;SDS011;14589;51.578;7.306;2023-11-19T12:54:43;10.43;;;1.55;;
27039;SDS011;14589;51.578;7.306;2023-11-19T12:57:13;14.45;;;1.77;;
27039;SDS011;14589;51.578;7.306;2023-11-19T12:59:56;13.18;;;1.77;;
27039;SDS011;14589;51.578;7.306;2023-11-19T13:05:23;11.63;;;1.20;;
27039;SDS011;14589;51.578;7.306;2023-11-19T13:08:02;10.25;;;0.90;;
27039;SDS011;14589;51.578;7.306;2023-11-19T13:10:53;10.45;;;1.30;;
27039;SDS011;14589;51.578;7.306;2023-11-19T13:13:24;13.98;;;2.45;;
27039;SDS011;14589;51.578;7.306;2023-11-19T13:16:01;17.42;;;1.30;;
27039;SDS011;14589;51.578;7.306;2023-11-19T13:18:33;11.60;;;0.98;;
27039;SDS011;14589;51.578;7.306;2023-11-19T13:21:03;7.75;;;1.45;;
27039;SDS011;14589;51.578;7.306;2023-11-19T13:23:34;11.82;;;1.50;;
27039;SDS011;14589;51.578;7.306;2023-11-19T13:26:05;8.68;;;0.68;;
27039;SDS011;14589;51.578;7.306;2023-11-19T13:28:35;9.55;;;0.40;;
27039;SDS011;14589;51.578;7.306;2023-11-19T13:31:06;11.70;;;0.55;;
27039;SDS011;14589;51.578;7.306;2023-11-19T13:33:37;15.80;;;1.10;;
27039;SDS011;14589;51.578;7.306;2023-11-19T13:36:08;7.68;;;1.00;;
27039;SDS011;14589;51.578;7.306;2023-11-19T13:38:39;6.28;;;0.73;;
27039;SDS011;14589;51.578;7.306;2023-11-19T13:41:12;11.02;;;1.58;;
27039;SDS011;14589;51.578;7.306;2023-11-19T13:43:43;13.63;;;2.17;;
27039;SDS011;14589;51.578;7.306;2023-11-19T13:46:14;10.70;;;1.58;;
27039;SDS011;14589;51.578;7.306;2023-11-19T13:48:44;9.00;;;2.15;;
27039;SDS011;14589;51.578;7.306;2023-11-19T13:51:15;6.13;;;0.77;;
27039;SDS011;14589;51.578;7.306;2023-11-19T13:53:46;8.13;;;1.00;;
27039;SDS011;14589;51.578;7.306;2023-11-19T13:56:16;8.90;;;0.98;;
27039;SDS011;14589;51.578;7.306;2023-11-19T13:58:47;16.02;;;1.17;;
27039;SDS011;14589;51.578;7.306;2023-11-19T14:01:17;5.60;;;1.10;;
27039;SDS011;14589;51.578;7.306;2023-11-19T14:03:48;11.60;;;0.70;;
27039;SDS011;14589;51.578;7.306;2023-11-19T14:06:18;11.68;;;1.52;;
27039;SDS011;14589;51.578;7.306;2023-11-19T14:08:48;10.82;;;1.65;;
27039;SDS011;14589;51.578;7.306;2023-11-19T14:11:19;13.27;;;1.38;;
27039;SDS011;14589;51.578;7.306;2023-11-19T14:13:49;15.27;;;0.88;;
27039;SDS011;14589;51.578;7.306;2023-11-19T14:16:20;13.00;;;1.00;;
27039;SDS011;14589;51.578;7.306;2023-11-19T14:18:51;9.25;;;2.30;;
27039;SDS011;14589;51.578;7.306;2023-11-19T14:21:21;13.52;;;1.10;;
27039;SDS011;14589;51.578;7.306;2023-11-19T14:23:52;9.65;;;1.35;;
27039;SDS011;14589;51.578;7.306;2023-11-19T14:26:23;7.88;;;0.88;;
27039;SDS011;14589;51.578;7.306;2023-11-19T14:28:53;11.63;;;1.17;;
27039;SDS011;14589;51.578;7.306;2023-11-19T14:31:27;12.52;;;2.05;;
27039;SDS011;14589;51.578;7.306;2023-11-19T14:33:58;10.60;;;0.82;;
27039;SDS011;14589;51.578;7.306;2023-11-19T14:36:28;9.63;;;1.45;;
27039;SDS011;14589;51.578;7.306;2023-11-19T14:38:59;8.82;;;1.38;;
27039;SDS011;14589;51.578;7.306;2023-11-19T14:41:29;12.55;;;2.28;;
27039;SDS011;14589;51.578;7.306;2023-11-19T14:44:00;8.13;;;1.23;;
27039;SDS011;14589;51.578;7.306;2023-11-19T14:46:31;12.48;;;1.90;;
27039;SDS011;14589;51.578;7.306;2023-11-19T14:49:01;10.45;;;1.70;;
27039;SDS011;14589;51.578;7.306;2023-11-19T14:51:37;7.53;;;1.48;;
27039;SDS011;14589;51.578;7.306;2023-11-19T14:54:08;9.10;;;1.45;;
27039;SDS011;14589;51.578;7.306;2023-11-19T14:56:38;7.63;;;1.52;;
27039;SDS011;14589;51.578;7.306;2023-11-19T14:59:09;9.63;;;0.82;;
27039;SDS011;14589;51.578;7.306;2023-11-19T15:01:39;8.68;;;0.65;;
27039;SDS011;14589;51.578;7.306;2023-11-19T15:04:10;8.77;;;1.30;;
27039;SDS011;14589;51.578;7.306;2023-11-19T15:06:41;10.27;;;1.23;;
27039;SDS011;14589;51.578;7.306;2023-11-19T15:09:11;6.47;;;1.05;;
27039;SDS011;14589;51.578;7.306;2023-11-19T15:11:47;11.60;;;1.73;;
27039;SDS011;14589;51.578;7.306;2023-11-19T15:14:17;15.60;;;1.15;;
27039;SDS011;14589;51.578;7.306;2023-11-19T15:16:51;8.80;;;0.50;;
27039;SDS011;14589;51.578;7.306;2023-11-19T15:19:21;10.73;;;1.98;;
27039;SDS011;14589;51.578;7.306;2023-11-19T15:21:52;13.52;;;1.45;;
27039;SDS011;14589;51.578;7.306;2023-11-19T15:24:25;14.52;;;1.00;;
27039;SDS011;14589;51.578;7.306;2023-11-19T15:26:55;13.55;;;1.60;;
27039;SDS011;14589;51.578;7.306;2023-11-19T15:29:26;10.98;;;0.93;;